Time;durP1;ratioP1;P1;durP2;ratioP2;P2;SDS_P1;SDS_P2;PMS_P1;PMS_P2;Temp;Humidity;BMP_temperature;BMP_pressure;BME280_temperature;BME280_humidity;BME280_pressure;Samples;Min_cycle;Max_cycle;Signal;HPM_P1;HPM_P2
2022/04/01 00:00:43;;;;;;;12.73;2.67;;;16.30;99.90;;;;;;5054229;28;20435;-73
2022/04/01 00:03:10;;;;;;;12.02;2.80;;;16.30;99.90;;;;;;5036866;28;20028;-73
2022/04/01 00:05:39;;;;;;;10.00;2.97;;;16.30;99.90;;;;;;5036653;28;20024;-75
2022/04/01 00:08:08;;;;;;;17.08;3.05;;;16.40;99.90;;;;;;5054720;28;20082;-73
2022/04/01 00:10:35;;;;;;;11.80;2.75;;;16.60;99.90;;;;;;5054513;28;20025;-74
2022/04/01 00:13:03;;;;;;;10.05;2.47;;;16.70;99.90;;;;;;5054607;28;20595;-73
2022/04/01 00:15:31;;;;;;;7.25;2.22;;;16.60;99.90;;;;;;5054578;28;20503;-74
2022/04/01 00:18:00;;;;;;;11.20;2.55;;;16.70;99.90;;;;;;5036473;28;20037;-73
2022/04/01 00:20:27;;;;;;;9.20;2.08;;;16.90;99.90;;;;;;5054325;28;20017;-73
2022/04/01 00:22:55;;;;;;;10.73;2.20;;;17.00;99.90;;;;;;5054341;28;20021;-73
2022/04/01 00:25:23;;;;;;;5.90;1.65;;;17.20;99.90;;;;;;5054034;28;20083;-74
2022/04/01 00:27:50;;;;;;;6.97;1.52;;;17.10;99.90;;;;;;5054272;28;20025;-74
2022/04/01 00:30:18;;;;;;;6.93;1.75;;;17.10;99.90;;;;;;5054042;28;20485;-73
2022/04/01 00:32:45;;;;;;;8.20;2.05;;;17.00;99.90;;;;;;5036183;28;20035;-73
2022/04/01 00:35:13;;;;;;;6.10;1.40;;;17.20;99.90;;;;;;5053957;28;20029;-73
2022/04/01 00:37:41;;;;;;;6.30;1.55;;;17.30;99.90;;;;;;5054092;28;20108;-73
2022/04/01 00:40:12;;;;;;;9.07;2.03;;;17.40;99.90;;;;;;5036264;28;20516;-75
2022/04/01 00:42:41;;;;;;;9.23;1.92;;;17.50;99.90;;;;;;5036082;28;20062;-71
2022/04/01 00:45:10;;;;;;;9.07;1.95;;;17.40;99.90;;;;;;5053834;28;20025;-71
2022/04/01 00:47:38;;;;;;;7.53;1.80;;;17.40;99.90;;;;;;5053919;28;20127;-72
2022/04/01 00:50:07;;;;;;;8.25;1.88;;;17.30;99.90;;;;;;5035746;28;20021;-73
2022/04/01 00:52:35;;;;;;;9.05;2.00;;;17.20;99.90;;;;;;5053972;28;20041;-75
2022/04/01 00:55:04;;;;;;;6.55;1.88;;;17.50;99.90;;;;;;5054104;28;20105;-74
2022/04/01 00:57:32;;;;;;;9.75;2.25;;;17.50;99.90;;;;;;5054080;28;20386;-73
2022/04/01 00:59:59;;;;;;;8.13;1.60;;;17.50;99.90;;;;;;5053964;28;20056;-74
2022/04/01 01:02:27;;;;;;;9.63;1.48;;;17.50;99.90;;;;;;5053626;28;20025;-75
2022/04/01 01:04:54;;;;;;;5.93;1.13;;;17.50;99.90;;;;;;5053408;28;20021;-75
2022/04/01 01:07:21;;;;;;;7.65;1.67;;;17.80;99.90;;;;;;5053615;28;20025;-74
2022/04/01 01:09:49;;;;;;;4.53;1.00;;;18.00;99.90;;;;;;5054088;28;20029;-74
2022/04/01 01:12:17;;;;;;;5.68;1.33;;;17.90;99.90;;;;;;5052840;28;20028;-74
2022/04/01 01:14:44;;;;;;;4.53;1.13;;;18.00;99.90;;;;;;5053613;28;20044;-74
2022/04/01 01:17:14;;;;;;;6.65;1.25;;;17.90;99.90;;;;;;5053148;28;20102;-76
2022/04/01 01:19:45;;;;;;;6.38;1.30;;;18.00;99.90;;;;;;5053492;28;20021;-75
2022/04/01 01:22:14;;;;;;;4.57;1.00;;;18.00;99.90;;;;;;5035744;28;20501;-75
2022/04/01 01:24:43;;;;;;;4.03;0.98;;;18.10;99.90;;;;;;5035336;28;20075;-75
2022/04/01 01:27:13;;;;;;;4.07;0.85;;;18.00;99.90;;;;;;5053369;28;20489;-74
2022/04/01 01:29:42;;;;;;;5.32;1.05;;;18.00;99.90;;;;;;5053310;28;20025;-74
2022/04/01 01:32:19;;;;;;;2.92;0.95;;;17.90;99.90;;;;;;5035135;28;20172;-74
2022/04/01 01:34:46;;;;;;;3.95;1.00;;;17.90;99.90;;;;;;5053303;28;20025;-74
2022/04/01 01:37:14;;;;;;;4.88;1.30;;;17.90;99.90;;;;;;5052876;28;20029;-75
2022/04/01 01:39:42;;;;;;;6.32;1.35;;;17.80;99.90;;;;;;5035030;28;20029;-74
2022/04/01 01:42:10;;;;;;;5.63;1.10;;;17.80;99.90;;;;;;5052853;28;20543;-75
2022/04/01 01:44:38;;;;;;;7.63;1.70;;;17.80;99.90;;;;;;5035181;28;20386;-76
2022/04/01 01:47:06;;;;;;;3.88;1.13;;;17.80;99.90;;;;;;5034843;28;20029;-74
2022/04/01 01:49:33;;;;;;;4.18;1.17;;;17.80;99.90;;;;;;5052676;28;20529;-75
2022/04/01 01:54:50;;;;;;;4.57;0.90;;;18.20;99.90;;;;;;5052681;28;20551;-75
2022/04/01 01:57:24;;;;;;;4.05;1.38;;;18.00;99.90;;;;;;5052491;28;20017;-75
2022/04/01 01:59:54;;;;;;;5.47;1.23;;;18.10;99.90;;;;;;5034555;28;20405;-75
2022/04/01 02:02:22;;;;;;;4.20;1.42;;;18.30;99.90;;;;;;5034447;28;20032;-75
2022/04/01 02:04:49;;;;;;;5.43;1.58;;;18.30;99.90;;;;;;5052381;28;20029;-75
2022/04/01 02:07:18;;;;;;;4.90;1.00;;;18.10;99.90;;;;;;5052384;28;20028;-75
2022/04/01 02:09:46;;;;;;;3.42;0.80;;;18.00;99.90;;;;;;5034298;28;20035;-75
2022/04/01 02:12:16;;;;;;;6.65;1.17;;;18.00;99.90;;;;;;5034363;28;20376;-75
2022/04/01 02:14:43;;;;;;;4.00;0.93;;;18.10;99.90;;;;;;5052288;28;20595;-76
2022/04/01 02:17:11;;;;;;;4.20;1.20;;;18.10;99.90;;;;;;5052028;28;20052;-75
2022/04/01 02:19:39;;;;;;;6.15;1.27;;;18.10;99.90;;;;;;5034173;28;20029;-76
2022/04/01 02:22:07;;;;;;;4.28;1.20;;;18.10;99.90;;;;;;5034319;28;20048;-76
2022/04/01 02:24:36;;;;;;;5.63;1.42;;;18.00;99.90;;;;;;5033890;28;20461;-76
2022/04/01 02:27:03;;;;;;;5.38;1.17;;;17.90;99.90;;;;;;5052092;28;20025;-76
2022/04/01 02:29:31;;;;;;;3.38;1.05;;;18.00;99.90;;;;;;5051901;28;20032;-76
2022/04/01 02:31:58;;;;;;;6.43;1.65;;;17.80;99.90;;;;;;5034167;28;20040;-76
2022/04/01 02:34:27;;;;;;;3.85;1.00;;;17.90;99.90;;;;;;5034111;28;20024;-76
2022/04/01 02:36:58;;;;;;;4.28;1.10;;;17.80;99.90;;;;;;5034034;28;20112;-75
2022/04/01 02:39:24;;;;;;;;;;;18.00;99.90;;;;;;5052419;28;20364;-75
2022/04/01 02:41:52;;;;;;;3.85;1.40;;;18.20;99.90;;;;;;5051983;28;19908;-76
2022/04/01 02:44:19;;;;;;;4.50;1.35;;;;;;;;;;5033892;28;20071;-77
2022/04/01 02:46:47;;;;;;;5.68;1.40;;;;;;;;;;5052005;28;20487;-76
2022/04/01 02:49:16;;;;;;;4.18;1.10;;;;;;;;;;5033860;28;20029;-76
2022/04/01 02:51:44;;;;;;;3.90;1.17;;;;;;;;;;5051923;28;20025;-77
2022/04/01 02:54:11;;;;;;;4.22;1.25;;;;;;;;;;5033956;28;20512;-75
2022/04/01 02:56:40;;;;;;;4.95;1.30;;;;;;;;;;5051930;28;20013;-76
2022/04/01 02:59:08;;;;;;;4.50;1.45;;;;;;;;;;5051827;28;20029;-76
2022/04/01 03:01:36;;;;;;;4.15;1.58;;;;;;;;;;5034040;28;20393;-76
2022/04/01 03:04:04;;;;;;;3.78;1.23;;;;;;;;;;5051696;28;20098;-76
2022/04/01 03:06:33;;;;;;;7.95;1.40;;;;;;;;;;5051637;28;20474;-76
2022/04/01 03:09:00;;;;;;;6.82;1.67;;;;;;;;;;5033682;28;20035;-76
2022/04/01 03:11:27;;;;;;;5.90;1.10;;;;;;;;;;5051797;28;20056;-76
2022/04/01 03:13:55;;;;;;;6.75;1.42;;;;;;;;;;5033714;28;20028;-75
2022/04/01 03:16:22;;;;;;;6.85;1.45;;;;;;;;;;5033632;28;20397;-75
2022/04/01 03:18:50;;;;;;;6.43;1.45;;;;;;;;;;5051670;28;20371;-75
2022/04/01 03:21:17;;;;;;;6.22;1.42;;;;;;;;;;5051668;28;20022;-75
2022/04/01 03:23:45;;;;;;;6.50;1.55;;;18.40;99.90;;;;;;5051734;28;20022;-75
2022/04/01 03:26:13;;;;;;;7.00;1.55;;;18.30;99.90;;;;;;5051566;28;20036;-74
2022/04/01 03:28:40;;;;;;;6.00;1.63;;;18.20;99.90;;;;;;5033744;28;20119;-75
2022/04/01 03:31:09;;;;;;;4.88;1.13;;;18.20;99.90;;;;;;5051436;28;20033;-76
2022/04/01 03:33:38;;;;;;;5.65;1.55;;;18.20;99.90;;;;;;5051510;28;20027;-76
2022/04/01 03:36:05;;;;;;;5.95;1.73;;;18.10;99.90;;;;;;5053553;28;20017;-79
2022/04/01 03:38:33;;;;;;;5.82;1.38;;;18.00;99.90;;;;;;5055276;28;20036;-77
2022/04/01 03:41:05;;;;;;;4.93;1.52;;;18.00;99.90;;;;;;5055152;28;20394;-76
2022/04/01 03:43:35;;;;;;;8.43;1.77;;;17.90;99.90;;;;;;5037247;28;20116;-75
2022/04/01 03:46:13;;;;;;;6.32;1.23;;;17.90;99.90;;;;;;5055042;28;20397;-77
2022/04/01 03:48:53;;;;;;;6.50;1.80;;;17.80;99.90;;;;;;5055513;28;20104;-79
2022/04/01 03:51:24;;;;;;;8.27;1.08;;;17.80;99.90;;;;;;5036957;28;20439;-78
2022/04/01 03:54:04;;;;;;;5.07;1.65;;;17.80;99.90;;;;;;5036835;28;20025;-78
2022/04/01 03:56:34;;;;;;;6.38;1.40;;;17.90;99.90;;;;;;5054663;28;20017;-78
2022/04/01 03:59:08;;;;;;;11.50;1.90;;;17.90;99.90;;;;;;5038086;28;20017;-78
2022/04/01 04:01:39;;;;;;;7.75;1.48;;;17.90;99.90;;;;;;5037714;28;20116;-77
2022/04/01 04:04:08;;;;;;;7.18;1.50;;;17.80;99.90;;;;;;5055118;28;20029;-77
2022/04/01 04:06:38;;;;;;;9.27;1.58;;;17.90;99.90;;;;;;5054829;28;20075;-77
2022/04/01 04:09:05;;;;;;;7.13;1.27;;;17.90;99.90;;;;;;5054388;28;20036;-75
2022/04/01 04:11:34;;;;;;;6.95;1.25;;;18.10;99.90;;;;;;5054320;28;20556;-74
2022/04/01 04:14:04;;;;;;;6.00;1.40;;;18.20;99.90;;;;;;5054310;28;20021;-75
2022/04/01 04:16:48;;;;;;;7.18;1.40;;;18.20;99.90;;;;;;5036360;28;20109;-74
2022/04/01 04:19:20;;;;;;;7.28;1.60;;;18.20;99.90;;;;;;5036540;28;20075;-74
2022/04/01 04:22:14;;;;;;;7.60;1.77;;;18.10;99.90;;;;;;5054333;28;20047;-74
2022/04/01 04:25:04;;;;;;;6.13;1.40;;;18.10;99.90;;;;;;5054331;28;20024;-74
2022/04/01 04:27:34;;;;;;;6.68;1.50;;;18.10;99.90;;;;;;5038883;28;20025;-74
2022/04/01 04:30:08;;;;;;;7.80;1.30;;;18.10;99.90;;;;;;5054371;28;20029;-77
2022/04/01 04:32:49;;;;;;;8.07;2.00;;;18.00;99.90;;;;;;5036262;28;20511;-77
2022/04/01 04:35:20;;;;;;;6.20;1.75;;;18.10;99.90;;;;;;5054610;28;20021;-76
2022/04/01 04:37:49;;;;;;;7.10;1.50;;;18.00;99.90;;;;;;5036731;28;20025;-77
2022/04/01 04:40:17;;;;;;;7.40;1.85;;;18.00;99.90;;;;;;5037003;28;20486;-77
2022/04/01 04:42:47;;;;;;;9.15;1.75;;;17.80;99.90;;;;;;5037012;28;20032;-78
2022/04/01 04:45:18;;;;;;;6.37;1.30;;;17.80;99.90;;;;;;5055330;28;20028;-77
2022/04/01 04:47:47;;;;;;;4.57;1.23;;;17.80;99.90;;;;;;5055482;28;20028;-77
2022/04/01 04:50:17;;;;;;;6.75;1.88;;;17.90;99.90;;;;;;5039493;28;20043;-77
2022/04/01 04:52:56;;;;;;;5.30;1.43;;;18.10;99.90;;;;;;5066396;28;20017;-78
2022/04/01 04:55:25;;;;;;;7.70;1.58;;;18.20;99.90;;;;;;5058329;28;20431;-76
2022/04/01 04:57:53;;;;;;;8.15;1.63;;;18.20;99.90;;;;;;5041158;28;20175;-77
2022/04/01 05:00:22;;;;;;;5.82;1.63;;;18.20;99.90;;;;;;5039888;28;20035;-77
2022/04/01 05:03:17;;;;;;;6.47;1.85;;;18.30;99.90;;;;;;5064391;28;20020;-77
2022/04/01 05:05:54;;;;;;;8.65;1.33;;;18.20;99.90;;;;;;5065616;28;20029;-77
2022/04/01 05:08:48;;;;;;;7.35;2.30;;;18.10;99.90;;;;;;5044547;28;20399;-76
2022/04/01 05:11:57;;;;;;;8.55;1.63;;;18.00;99.90;;;;;;5054769;28;20017;-75
2022/04/01 05:14:52;;;;;;;8.57;2.25;;;18.10;99.90;;;;;;5054490;28;20025;-78
2022/04/01 05:17:46;;;;;;;6.63;1.77;;;18.30;99.90;;;;;;5040752;28;20041;-77
2022/04/01 05:20:17;;;;;;;8.80;1.50;;;18.20;99.90;;;;;;5024102;28;20037;-77
2022/04/01 05:22:50;;;;;;;7.53;1.80;;;18.10;99.90;;;;;;5035797;28;20032;-76
2022/04/01 05:25:20;;;;;;;6.47;1.67;;;18.00;99.90;;;;;;5054313;28;20029;-79
2022/04/01 05:28:00;;;;;;;6.28;1.67;;;18.00;99.90;;;;;;5040325;28;20504;-77
2022/04/01 05:30:30;;;;;;;12.87;2.63;;;17.90;99.90;;;;;;5039470;28;20461;-77
2022/04/01 05:33:06;;;;;;;8.13;2.35;;;17.90;99.90;;;;;;5037299;28;20028;-76
2022/04/01 05:35:44;;;;;;;8.50;1.60;;;17.90;99.90;;;;;;5054993;28;20036;-75
2022/04/01 05:38:11;;;;;;;6.25;1.50;;;17.90;99.90;;;;;;5038806;28;20028;-76
2022/04/01 05:40:39;;;;;;;6.47;1.45;;;17.90;99.90;;;;;;5037030;28;20392;-76
2022/04/01 05:43:07;;;;;;;6.50;1.70;;;17.90;99.90;;;;;;5054304;28;20025;-77
2022/04/01 05:45:34;;;;;;;7.65;1.55;;;17.90;99.90;;;;;;5036226;28;20029;-76
2022/04/01 05:48:03;;;;;;;10.13;2.42;;;17.80;99.90;;;;;;5036621;28;20029;-77
2022/04/01 05:50:31;;;;;;;8.45;1.80;;;17.70;99.90;;;;;;5037709;28;20071;-76
2022/04/01 05:53:01;;;;;;;8.15;1.67;;;17.70;99.90;;;;;;5056850;28;20017;-76
2022/04/01 05:55:32;;;;;;;10.15;1.90;;;17.70;99.90;;;;;;5055034;28;20028;-75
2022/04/01 05:58:03;;;;;;;6.78;1.60;;;17.70;99.90;;;;;;5037283;28;20032;-76
2022/04/01 06:00:38;;;;;;;7.85;1.73;;;17.60;99.90;;;;;;5055602;28;20028;-76
2022/04/01 06:03:44;;;;;;;7.95;2.22;;;17.70;99.90;;;;;;5055546;28;20025;-76
2022/04/01 06:06:21;;;;;;;9.40;2.00;;;17.60;99.90;;;;;;5045953;28;20048;-76
2022/04/01 06:09:03;;;;;;;8.50;1.45;;;17.70;99.90;;;;;;5038922;28;20060;-76
2022/04/01 06:11:57;;;;;;;8.27;1.83;;;17.60;99.90;;;;;;5038722;28;20082;-77
2022/04/01 06:14:34;;;;;;;5.65;1.98;;;17.60;99.90;;;;;;5037140;28;20120;-76
2022/04/01 06:17:16;;;;;;;10.05;2.17;;;17.50;99.90;;;;;;5054942;28;20037;-78
2022/04/01 06:19:50;;;;;;;11.18;2.70;;;17.60;99.90;;;;;;5036742;28;20350;-76
2022/04/01 06:22:19;;;;;;;8.27;1.90;;;17.60;99.90;;;;;;5053341;28;20017;-76
2022/04/01 06:25:15;;;;;;;8.52;1.90;;;17.60;99.90;;;;;;5035131;28;20025;-75
2022/04/01 06:27:54;;;;;;;8.48;1.70;;;17.60;99.90;;;;;;5033553;28;20033;-73
2022/04/01 06:30:23;;;;;;;7.78;2.35;;;17.60;99.90;;;;;;5035034;28;20033;-75
2022/04/01 06:32:50;;;;;;;7.72;1.90;;;17.60;99.90;;;;;;5034102;28;20025;-76
2022/04/01 06:35:49;;;;;;;7.38;2.58;;;17.60;99.90;;;;;;5035826;28;20178;-76
2022/04/01 06:39:03;;;;;;;6.53;1.70;;;17.60;99.90;;;;;;5036581;28;20501;-76
2022/04/01 06:41:35;;;;;;;8.30;1.92;;;17.60;99.90;;;;;;5055339;28;20111;-76
2022/04/01 06:44:02;;;;;;;7.88;2.10;;;17.50;99.90;;;;;;5037420;28;20079;-76
2022/04/01 06:46:30;;;;;;;7.70;2.17;;;17.60;99.90;;;;;;5054721;28;20028;-77
2022/04/01 06:48:58;;;;;;;8.35;1.52;;;17.50;99.90;;;;;;5037826;28;20056;-77
2022/04/01 06:51:25;;;;;;;7.97;2.13;;;17.50;99.90;;;;;;5038835;28;20385;-77
2022/04/01 06:53:53;;;;;;;7.68;1.70;;;17.50;99.90;;;;;;5057712;28;20022;-75
2022/04/01 06:56:20;;;;;;;7.25;1.70;;;17.40;99.90;;;;;;5037126;28;20092;-77
2022/04/01 06:58:48;;;;;;;8.43;2.20;;;17.50;99.90;;;;;;5054960;28;20391;-76
2022/04/01 07:01:16;;;;;;;6.50;1.75;;;17.50;99.90;;;;;;5036245;28;20029;-75
2022/04/01 07:03:44;;;;;;;5.35;1.88;;;17.40;99.90;;;;;;5037287;28;20370;-76
2022/04/01 07:06:11;;;;;;;9.93;2.05;;;17.50;99.90;;;;;;5036916;28;20032;-75
2022/04/01 07:08:39;;;;;;;8.48;2.35;;;17.40;99.90;;;;;;5055099;28;20385;-75
2022/04/01 07:11:07;;;;;;;8.52;2.45;;;17.40;99.90;;;;;;5040743;28;20576;-77
2022/04/01 07:13:35;;;;;;;5.93;1.63;;;17.40;99.90;;;;;;5058969;28;20022;-75
2022/04/01 07:16:02;;;;;;;8.23;2.78;;;17.40;99.90;;;;;;5040772;28;20056;-76
2022/04/01 07:18:29;;;;;;;9.57;2.90;;;17.40;99.90;;;;;;5058874;28;20037;-75
2022/04/01 07:20:57;;;;;;;8.00;2.20;;;17.40;99.90;;;;;;5040520;28;20035;-75
2022/04/01 07:23:24;;;;;;;6.57;1.73;;;17.40;99.90;;;;;;5058299;28;20017;-76
2022/04/01 07:25:51;;;;;;;4.95;1.50;;;17.30;99.90;;;;;;5057874;28;20021;-75
2022/04/01 07:28:19;;;;;;;8.40;1.83;;;17.30;99.90;;;;;;5040307;28;20024;-75
2022/04/01 07:30:46;;;;;;;6.78;2.08;;;17.30;99.90;;;;;;5058335;28;20362;-75
2022/04/01 07:33:14;;;;;;;6.78;2.33;;;17.30;99.90;;;;;;5058202;28;20021;-75
2022/04/01 07:35:43;;;;;;;6.13;1.80;;;17.30;99.90;;;;;;5040470;28;20048;-75
2022/04/01 07:38:10;;;;;;;7.63;1.88;;;17.40;99.90;;;;;;5057269;28;20025;-75
2022/04/01 07:40:38;;;;;;;7.00;2.38;;;17.30;99.90;;;;;;5057746;28;20496;-75
2022/04/01 07:43:05;;;;;;;9.38;2.58;;;17.30;99.90;;;;;;5058353;28;20104;-75
2022/04/01 07:45:37;;;;;;;5.05;1.70;;;17.30;99.90;;;;;;5065421;28;20366;-75
2022/04/01 07:48:06;;;;;;;6.65;1.95;;;17.30;99.90;;;;;;5061864;28;20025;-75
2022/04/01 07:50:33;;;;;;;5.20;1.40;;;17.30;99.90;;;;;;5043652;28;20025;-75
2022/04/01 07:53:03;;;;;;;7.03;1.77;;;17.30;99.90;;;;;;5064210;28;20021;-75
2022/04/01 07:55:30;;;;;;;6.15;1.73;;;17.30;99.90;;;;;;5064381;28;20100;-75
2022/04/01 07:57:57;;;;;;;7.00;2.80;;;17.30;99.90;;;;;;5069360;28;20021;-75
2022/04/01 08:00:25;;;;;;;6.82;2.88;;;17.20;99.90;;;;;;5049142;28;20025;-75
2022/04/01 08:02:54;;;;;;;6.88;1.83;;;17.30;99.90;;;;;;5049593;28;20036;-76
2022/04/01 08:05:22;;;;;;;5.25;1.70;;;17.20;99.90;;;;;;5066024;28;20135;-75
2022/04/01 08:07:49;;;;;;;9.15;2.20;;;17.20;99.90;;;;;;5050914;28;20055;-75
2022/04/01 08:10:16;;;;;;;5.38;1.95;;;17.20;99.90;;;;;;5052194;28;20032;-76
2022/04/01 08:12:44;;;;;;;7.28;1.63;;;17.20;99.90;;;;;;5047042;28;20478;-75
2022/04/01 08:15:12;;;;;;;7.15;1.90;;;17.20;99.90;;;;;;5061799;28;20028;-75
2022/04/01 08:17:40;;;;;;;3.60;1.30;;;17.30;99.90;;;;;;5063932;28;20097;-74
2022/04/01 08:20:10;;;;;;;7.30;1.60;;;17.20;99.90;;;;;;5047476;28;20029;-74
2022/04/01 08:22:37;;;;;;;5.65;1.30;;;17.20;99.90;;;;;;5048539;28;20036;-75
2022/04/01 08:25:05;;;;;;;8.57;1.90;;;17.20;99.90;;;;;;5065902;28;20033;-75
2022/04/01 08:27:33;;;;;;;6.93;2.30;;;17.20;99.90;;;;;;5049920;28;20028;-76
2022/04/01 08:30:01;;;;;;;5.40;1.50;;;17.10;99.90;;;;;;5070827;28;20025;-75
2022/04/01 08:32:32;;;;;;;8.00;2.25;;;17.20;99.90;;;;;;5046361;28;20115;-75
2022/04/01 08:35:00;;;;;;;5.35;1.75;;;17.10;99.90;;;;;;5051190;28;20032;-74
2022/04/01 08:37:27;;;;;;;5.85;1.90;;;17.10;99.90;;;;;;5048884;28;20108;-74
2022/04/01 08:39:58;;;;;;;6.25;1.58;;;17.10;99.90;;;;;;5044991;28;20047;-74
2022/04/01 08:42:27;;;;;;;6.57;1.83;;;17.10;99.90;;;;;;5051780;28;20021;-75
2022/04/01 08:44:55;;;;;;;5.78;1.50;;;17.10;99.90;;;;;;5051427;28;20048;-75
2022/04/01 08:47:22;;;;;;;5.53;1.55;;;17.10;99.90;;;;;;5043566;28;20025;-75
2022/04/01 08:49:52;;;;;;;6.65;1.80;;;17.10;99.90;;;;;;5061808;28;20573;-74
2022/04/01 08:52:20;;;;;;;4.78;1.35;;;17.10;99.90;;;;;;5062312;28;20021;-76
2022/04/01 08:54:48;;;;;;;7.90;2.20;;;17.10;99.90;;;;;;5042964;28;20042;-74
2022/04/01 08:57:18;;;;;;;5.63;1.70;;;17.10;99.90;;;;;;5045005;28;20021;-75
2022/04/01 08:59:45;;;;;;;;;;;17.00;99.90;;;;;;5045368;28;20036;-74
2022/04/01 09:02:14;;;;;;;5.72;2.00;;;17.00;99.90;;;;;;5045180;28;19905;-74
2022/04/01 09:04:42;;;;;;;5.38;1.67;;;17.00;99.90;;;;;;5062161;28;20074;-77
2022/04/01 09:07:15;;;;;;;5.55;1.70;;;17.00;99.90;;;;;;5040670;28;20036;-77
2022/04/01 09:09:43;;;;;;;7.00;1.85;;;16.90;99.90;;;;;;5058963;28;20029;-77
2022/04/01 09:12:17;;;;;;;4.63;1.67;;;17.00;99.90;;;;;;5060449;28;20027;-77
2022/04/01 09:14:53;;;;;;;7.57;2.08;;;17.00;99.90;;;;;;5058404;28;20021;-76
2022/04/01 09:17:21;;;;;;;6.38;1.33;;;16.90;99.90;;;;;;5056354;28;20476;-76
2022/04/01 09:19:49;;;;;;;9.15;1.38;;;17.00;99.90;;;;;;5039819;28;20106;-76
2022/04/01 09:22:23;;;;;;;6.10;1.70;;;17.00;99.90;;;;;;5037930;28;20509;-76
2022/04/01 09:25:03;;;;;;;6.57;1.50;;;17.00;99.90;;;;;;5038963;28;20167;-77
2022/04/01 09:27:49;;;;;;;6.18;1.83;;;17.00;99.90;;;;;;5056197;28;20036;-76
2022/04/01 09:30:19;;;;;;;9.75;1.83;;;16.90;99.90;;;;;;5038395;28;20505;-78
2022/04/01 09:32:51;;;;;;;6.80;1.83;;;16.90;99.90;;;;;;5038728;28;20465;-77
2022/04/01 09:35:23;;;;;;;5.22;1.25;;;17.00;99.90;;;;;;5040066;28;20028;-77
2022/04/01 09:37:57;;;;;;;6.72;1.83;;;16.90;99.90;;;;;;5057163;28;20040;-77
2022/04/01 09:40:25;;;;;;;5.68;1.52;;;17.00;99.90;;;;;;5060426;28;20107;-78
2022/04/01 09:42:57;;;;;;;5.97;2.08;;;16.90;99.90;;;;;;5040687;28;20036;-77
2022/04/01 09:45:38;;;;;;;5.75;1.60;;;16.80;99.90;;;;;;5039735;28;20033;-78
2022/04/01 09:48:16;;;;;;;5.90;1.30;;;16.90;99.90;;;;;;5022571;28;20059;-76
2022/04/01 09:50:54;;;;;;;3.55;1.00;;;16.90;99.90;;;;;;5039480;28;20056;-78
2022/04/01 09:53:22;;;;;;;5.88;1.42;;;16.80;99.90;;;;;;5059358;28;20441;-79
2022/04/01 09:55:52;;;;;;;5.43;1.30;;;16.80;99.90;;;;;;5038532;28;20563;-76
2022/04/01 09:58:22;;;;;;;4.80;0.98;;;16.80;99.90;;;;;;5056126;28;20047;-78
2022/04/01 10:00:51;;;;;;;5.03;1.30;;;16.80;99.90;;;;;;5040102;28;20143;-78
2022/04/01 10:03:19;;;;;;;5.05;1.33;;;16.80;99.90;;;;;;5041116;28;20397;-78
2022/04/01 10:05:48;;;;;;;5.05;1.60;;;16.70;99.90;;;;;;5042571;28;20477;-78
2022/04/01 10:08:15;;;;;;;5.70;1.20;;;16.70;99.90;;;;;;5023486;28;20033;-79
2022/04/01 10:10:44;;;;;;;5.82;1.23;;;16.70;99.90;;;;;;5040196;28;20056;-79
2022/04/01 10:13:30;;;;;;;6.50;1.58;;;16.70;99.90;;;;;;5040845;28;20027;-78
2022/04/01 10:15:59;;;;;;;4.97;1.33;;;16.70;99.90;;;;;;5042242;28;20089;-78
2022/04/01 10:18:27;;;;;;;6.20;1.50;;;16.60;99.90;;;;;;5061505;28;20052;-78
2022/04/01 10:20:56;;;;;;;7.03;1.70;;;16.60;99.90;;;;;;5057722;28;20032;-77
2022/04/01 10:23:26;;;;;;;7.80;2.20;;;16.60;99.90;;;;;;5062768;28;20455;-77
2022/04/01 10:26:09;;;;;;;5.07;1.30;;;16.60;99.90;;;;;;5043947;28;20028;-79
2022/04/01 10:28:36;;;;;;;6.32;1.55;;;16.60;99.90;;;;;;5046745;28;20059;-79
2022/04/01 10:31:04;;;;;;;5.28;1.55;;;16.50;99.90;;;;;;5044230;28;20036;-79
2022/04/01 10:33:38;;;;;;;5.32;1.30;;;16.50;99.90;;;;;;5058701;28;20025;-79
2022/04/01 10:36:29;;;;;;;3.50;1.20;;;16.50;99.90;;;;;;5056073;28;20032;-78
2022/04/01 10:39:06;;;;;;;6.03;1.35;;;16.50;99.90;;;;;;5036228;28;20025;-79
2022/04/01 10:41:34;;;;;;;7.18;1.40;;;16.50;99.90;;;;;;5036410;28;20029;-79
2022/04/01 10:44:02;;;;;;;5.95;1.20;;;16.50;99.90;;;;;;5037480;28;20017;-80
2022/04/01 10:46:29;;;;;;;7.75;1.48;;;16.50;99.90;;;;;;5042480;28;20028;-78
2022/04/01 10:52:27;;;;;;;4.95;0.95;;;16.50;99.90;;;;;;5060617;28;20031;-79
2022/04/01 10:55:16;;;;;;;6.50;1.30;;;16.40;99.90;;;;;;5064723;28;20086;-77
2022/04/01 10:57:47;;;;;;;4.70;1.08;;;16.50;99.90;;;;;;5066546;28;20392;-77
2022/04/01 11:00:19;;;;;;;4.38;1.40;;;16.50;99.90;;;;;;5068245;28;20025;-78
2022/04/01 11:02:48;;;;;;;5.75;1.30;;;16.50;99.90;;;;;;5070534;28;20021;-78
2022/04/01 11:05:31;;;;;;;8.23;1.92;;;16.50;99.90;;;;;;5049511;28;20025;-78
2022/04/01 11:08:32;;;;;;;9.35;1.38;;;16.50;99.90;;;;;;5051076;28;20025;-77
2022/04/01 11:11:07;;;;;;;6.85;1.25;;;16.50;99.90;;;;;;5016748;28;20478;-77
2022/04/01 11:13:36;;;;;;;6.25;1.17;;;16.50;99.90;;;;;;5061986;28;20040;-77
2022/04/01 11:16:21;;;;;;;4.18;0.98;;;16.40;99.90;;;;;;5058341;28;20466;-77
2022/04/01 11:19:28;;;;;;;5.03;1.23;;;16.40;99.90;;;;;;5057585;28;20569;-79
2022/04/01 11:21:56;;;;;;;8.70;1.67;;;16.40;99.90;;;;;;5061196;28;20473;-78
2022/04/01 11:24:41;;;;;;;4.25;0.90;;;16.40;99.90;;;;;;5039316;28;20385;-79
2022/04/01 11:27:23;;;;;;;5.53;1.65;;;16.40;99.90;;;;;;5041074;28;20021;-78
2022/04/01 11:30:14;;;;;;;8.35;1.23;;;16.40;99.90;;;;;;5060445;28;20029;-78
2022/04/01 11:32:50;;;;;;;4.25;1.05;;;16.30;99.90;;;;;;5039093;28;20027;-77
2022/04/01 11:35:22;;;;;;;7.47;1.88;;;16.30;99.90;;;;;;5026097;28;20056;-78
2022/04/01 11:37:50;;;;;;;7.07;1.25;;;16.30;99.90;;;;;;5039599;28;20032;-78
2022/04/01 11:40:25;;;;;;;6.32;1.30;;;16.30;99.90;;;;;;5039308;28;20507;-78
2022/04/01 11:43:02;;;;;;;5.60;1.00;;;16.30;99.90;;;;;;5041116;28;20460;-77
2022/04/01 11:45:34;;;;;;;7.38;1.73;;;16.30;99.90;;;;;;5060602;28;20057;-78
2022/04/01 11:48:28;;;;;;;5.18;0.90;;;16.30;99.90;;;;;;5042178;28;20086;-79
2022/04/01 11:51:11;;;;;;;6.40;1.20;;;16.30;99.90;;;;;;5062632;28;20053;-78
2022/04/01 11:53:47;;;;;;;6.25;1.30;;;16.30;99.90;;;;;;5040810;28;20108;-79
2022/04/01 11:56:16;;;;;;;7.20;1.30;;;16.30;99.90;;;;;;5036982;28;20021;-78
2022/04/01 11:58:58;;;;;;;7.82;1.48;;;16.30;99.90;;;;;;5038763;28;20108;-79
2022/04/01 12:01:34;;;;;;;6.20;1.13;;;16.30;99.90;;;;;;5042172;28;20036;-78
2022/04/01 12:04:12;;;;;;;6.28;1.55;;;16.30;99.90;;;;;;5039566;28;20052;-79
2022/04/01 12:09:36;;;;;;;7.28;1.85;;;16.30;99.90;;;;;;5058245;28;20055;-78
2022/04/01 12:12:05;;;;;;;6.68;1.65;;;16.30;99.90;;;;;;5058230;28;20032;-79
2022/04/01 12:14:33;;;;;;;3.97;1.08;;;16.40;99.90;;;;;;5039029;28;20032;-79
2022/04/01 12:17:10;;;;;;;5.25;0.80;;;16.30;99.90;;;;;;5040289;28;20056;-80
2022/04/01 12:19:37;;;;;;;4.60;1.10;;;16.30;99.90;;;;;;5045800;28;20413;-80
2022/04/01 12:22:05;;;;;;;4.82;0.90;;;16.40;99.90;;;;;;5040594;28;20251;-80
2022/04/01 12:24:35;;;;;;;3.80;1.02;;;16.40;99.90;;;;;;5041302;28;20393;-79
2022/04/01 12:27:05;;;;;;;4.60;1.10;;;16.40;99.90;;;;;;5046430;28;20113;-78
2022/04/01 12:29:33;;;;;;;8.10;0.88;;;16.40;99.90;;;;;;5044666;28;20091;-78
2022/04/01 12:32:08;;;;;;;4.35;0.73;;;16.50;99.90;;;;;;5062958;28;20028;-78
2022/04/01 12:34:35;;;;;;;5.00;0.90;;;16.50;99.90;;;;;;5058835;28;20029;-79
2022/04/01 12:37:07;;;;;;;6.00;1.10;;;16.50;99.90;;;;;;5057866;28;20040;-79
2022/04/01 12:39:36;;;;;;;5.25;0.90;;;16.50;99.90;;;;;;5040368;28;20385;-79
2022/04/01 12:42:15;;;;;;;4.75;1.00;;;16.50;99.90;;;;;;5044943;28;20029;-81
2022/04/01 12:44:44;;;;;;;4.90;1.00;;;16.60;99.90;;;;;;5060323;28;20025;-80
2022/04/01 12:47:25;;;;;;;2.17;0.57;;;16.50;99.90;;;;;;5041239;28;20029;-79
2022/04/01 12:49:53;;;;;;;5.72;0.90;;;16.50;99.90;;;;;;5043066;28;20493;-80
2022/04/01 12:52:20;;;;;;;4.80;0.95;;;16.50;99.90;;;;;;5055839;28;20025;-79
2022/04/01 12:55:00;;;;;;;4.10;0.70;;;16.50;99.90;;;;;;5058180;28;20056;-79
2022/04/01 12:57:27;;;;;;;4.78;1.05;;;16.50;99.90;;;;;;5056531;28;20485;-80
2022/04/01 12:59:56;;;;;;;5.35;1.15;;;16.50;99.90;;;;;;5037719;28;20391;-77
2022/04/01 13:02:25;;;;;;;4.97;0.60;;;16.50;99.90;;;;;;5040336;28;20548;-79
2022/04/01 13:04:56;;;;;;;5.50;1.30;;;16.50;99.90;;;;;;5039363;28;20028;-78
2022/04/01 13:07:32;;;;;;;3.80;0.93;;;16.50;99.90;;;;;;5057462;28;20028;-79
2022/04/01 13:10:13;;;;;;;4.85;0.80;;;16.50;99.90;;;;;;5055929;28;20508;-78
2022/04/01 13:12:43;;;;;;;3.55;0.70;;;16.50;99.90;;;;;;5038500;28;20488;-79
2022/04/01 13:15:16;;;;;;;4.53;0.80;;;16.40;99.90;;;;;;5038094;28;20453;-78
2022/04/01 13:17:50;;;;;;;3.28;0.93;;;16.40;99.90;;;;;;5056192;28;20047;-79
2022/04/01 13:20:23;;;;;;;3.28;0.75;;;16.40;99.90;;;;;;5036800;28;20083;-78
2022/04/01 13:22:51;;;;;;;4.63;1.02;;;16.40;99.90;;;;;;5037297;28;20032;-80
2022/04/01 13:25:19;;;;;;;3.83;0.80;;;16.30;99.90;;;;;;5056226;28;20499;-78